Terminal Aerodrome Forecast
Issued by NWS Blacksburg, VA

Current Version | Previous Version | Text Only | Print | Product List | Glossary Off
Versions: 1 2 3 4 5 6 7 8 9 10 11 12 13 14 15 16 17 18 19 20 21 22 23 24 25 26 27 28 29 30 31 32 33 34 35 36 37 38 39 40 41 42 43 44 45 46

000
FTUS41 KRNK 220922 AAA
TAFBLF
TAF AMD
KBLF 220922Z 2209/2306 25005KT P6SM SCT090 BKN110
      TEMPO 2210/2212 5SM BR OVC025
     FM221200 VRB03KT P6SM OVC025
     FM221700 02004KT 3SM -SHRA BR VCTS OVC015CB
     FM222000 30007KT 5SM SHRA BR SCT009 OVC030
     FM230200 00000KT 6SM -SHRA BR OVC009=

USA.gov is the U.S. government's official web portal to all federal, state and local government web resources and services.